sensor_id;sensor_type;location;lat;lon;timestamp;pressure;altitude;pressure_sealevel;temperature;humidity
48390;BME280;34643;47.964;7.982;2022-10-23T00:04:27;96736.34;;;18.48;65.39
48390;BME280;34643;47.964;7.982;2022-10-23T00:09:27;96727.53;;;18.49;65.47
48390;BME280;34643;47.964;7.982;2022-10-23T00:14:28;96726.84;;;18.47;65.55
48390;BME280;34643;47.964;7.982;2022-10-23T00:19:28;96718.06;;;18.48;65.71
48390;BME280;34643;47.964;7.982;2022-10-23T00:24:28;96713.75;;;18.47;65.52
48390;BME280;34643;47.964;7.982;2022-10-23T00:29:28;96708.66;;;18.46;65.51
48390;BME280;34643;47.964;7.982;2022-10-23T00:34:29;96715.56;;;18.47;65.41
48390;BME280;34643;47.964;7.982;2022-10-23T00:39:29;96703.44;;;18.46;65.61
48390;BME280;34643;47.964;7.982;2022-10-23T00:49:30;96694.53;;;18.48;65.47
48390;BME280;34643;47.964;7.982;2022-10-23T00:54:41;96707.72;;;18.47;65.41
48390;BME280;34643;47.964;7.982;2022-10-23T00:59:42;96704.16;;;18.48;65.42
48390;BME280;34643;47.964;7.982;2022-10-23T01:04:42;96693.72;;;18.48;65.34
48390;BME280;34643;47.964;7.982;2022-10-23T01:09:45;96696.31;;;18.48;65.38
48390;BME280;34643;47.964;7.982;2022-10-23T01:25:02;96679.91;;;18.46;65.39
48390;BME280;34643;47.964;7.982;2022-10-23T01:30:07;96682.53;;;18.46;65.54
48390;BME280;34643;47.964;7.982;2022-10-23T01:35:19;96678.16;;;18.46;65.49
48390;BME280;34643;47.964;7.982;2022-10-23T01:40:40;96672.91;;;18.46;65.53
48390;BME280;34643;47.964;7.982;2022-10-23T01:45:44;96662.69;;;18.43;65.54
48390;BME280;34643;47.964;7.982;2022-10-23T01:50:51;96652.94;;;18.45;65.48
48390;BME280;34643;47.964;7.982;2022-10-23T01:55:52;96646.91;;;18.45;65.30
48390;BME280;34643;47.964;7.982;2022-10-23T02:00:58;96644.28;;;18.45;65.55
48390;BME280;34643;47.964;7.982;2022-10-23T02:06:00;96635.47;;;18.46;65.36
48390;BME280;34643;47.964;7.982;2022-10-23T02:11:06;96626.00;;;18.45;65.59
48390;BME280;34643;47.964;7.982;2022-10-23T02:16:11;96630.25;;;18.46;65.31
48390;BME280;34643;47.964;7.982;2022-10-23T02:21:17;96612.81;;;18.46;65.43
48390;BME280;34643;47.964;7.982;2022-10-23T02:26:24;96619.09;;;18.43;65.45
48390;BME280;34643;47.964;7.982;2022-10-23T02:31:28;96622.56;;;18.44;65.45
48390;BME280;34643;47.964;7.982;2022-10-23T02:36:29;96622.56;;;18.44;65.33
48390;BME280;34643;47.964;7.982;2022-10-23T02:51:58;96602.59;;;18.43;65.29
48390;BME280;34643;47.964;7.982;2022-10-23T02:57:13;96595.56;;;18.43;65.36
48390;BME280;34643;47.964;7.982;2022-10-23T03:02:22;96592.97;;;18.43;65.38
48390;BME280;34643;47.964;7.982;2022-10-23T03:07:24;96590.34;;;18.43;65.36
48390;BME280;34643;47.964;7.982;2022-10-23T03:12:32;96585.13;;;18.43;65.45
48390;BME280;34643;47.964;7.982;2022-10-23T03:17:32;96573.97;;;18.41;65.32
48390;BME280;34643;47.964;7.982;2022-10-23T03:22:33;96587.03;;;18.41;65.50
48390;BME280;34643;47.964;7.982;2022-10-23T03:27:34;96582.63;;;18.42;65.44
48390;BME280;34643;47.964;7.982;2022-10-23T03:32:37;96580.03;;;18.42;65.22
48390;BME280;34643;47.964;7.982;2022-10-23T03:37:39;96571.38;;;18.41;65.36
48390;BME280;34643;47.964;7.982;2022-10-23T03:42:39;96577.41;;;18.42;65.45
48390;BME280;34643;47.964;7.982;2022-10-23T03:47:41;96572.19;;;18.42;65.39
48390;BME280;34643;47.964;7.982;2022-10-23T03:52:41;96566.97;;;18.42;65.47
48390;BME280;34643;47.964;7.982;2022-10-23T03:57:42;96562.81;;;18.39;65.48
48390;BME280;34643;47.964;7.982;2022-10-23T04:02:43;96562.69;;;18.41;65.35
48390;BME280;34643;47.964;7.982;2022-10-23T04:07:43;96567.94;;;18.41;65.31
48390;BME280;34643;47.964;7.982;2022-10-23T04:12:44;96568.88;;;18.40;65.49
48390;BME280;34643;47.964;7.982;2022-10-23T04:17:45;96560.22;;;18.39;65.46
48390;BME280;34643;47.964;7.982;2022-10-23T04:22:46;96553.31;;;18.38;65.41
48390;BME280;34643;47.964;7.982;2022-10-23T04:27:47;96553.19;;;18.40;65.26
48390;BME280;34643;47.964;7.982;2022-10-23T04:32:50;96564.63;;;18.39;65.33
48390;BME280;34643;47.964;7.982;2022-10-23T04:37:50;96562.81;;;18.39;65.49
48390;BME280;34643;47.964;7.982;2022-10-23T04:42:51;96568.16;;;18.38;65.46
48390;BME280;34643;47.964;7.982;2022-10-23T04:47:52;96563.75;;;18.38;65.31
48390;BME280;34643;47.964;7.982;2022-10-23T04:52:53;96559.50;;;18.37;65.32
48390;BME280;34643;47.964;7.982;2022-10-23T04:58:12;96550.00;;;18.36;65.45
48390;BME280;34643;47.964;7.982;2022-10-23T05:03:12;96556.03;;;18.37;65.27
48390;BME280;34643;47.964;7.982;2022-10-23T05:08:15;96550.97;;;18.35;65.39
48390;BME280;34643;47.964;7.982;2022-10-23T05:13:34;96544.78;;;18.36;65.20
48390;BME280;34643;47.964;7.982;2022-10-23T05:18:35;96556.19;;;18.35;65.46
48390;BME280;34643;47.964;7.982;2022-10-23T05:23:37;96535.28;;;18.35;65.33
48390;BME280;34643;47.964;7.982;2022-10-23T05:28:40;96538.72;;;18.36;65.45
48390;BME280;34643;47.964;7.982;2022-10-23T05:33:42;96529.22;;;18.35;65.34
48390;BME280;34643;47.964;7.982;2022-10-23T05:38:42;96537.75;;;18.37;65.41
48390;BME280;34643;47.964;7.982;2022-10-23T05:43:49;96533.63;;;18.34;65.38
48390;BME280;34643;47.964;7.982;2022-10-23T05:49:15;96533.63;;;18.34;65.44
48390;BME280;34643;47.964;7.982;2022-10-23T05:54:35;96524.13;;;18.33;65.34
48390;BME280;34643;47.964;7.982;2022-10-23T05:59:49;96535.41;;;18.34;65.32
48390;BME280;34643;47.964;7.982;2022-10-23T06:04:55;96525.91;;;18.33;65.44
48390;BME280;34643;47.964;7.982;2022-10-23T06:10:07;96525.91;;;18.33;65.71
48390;BME280;34643;47.964;7.982;2022-10-23T06:15:12;96519.03;;;18.32;65.41
48390;BME280;34643;47.964;7.982;2022-10-23T06:20:27;96517.25;;;18.32;65.23
48390;BME280;34643;47.964;7.982;2022-10-23T06:25:36;96513.81;;;18.32;65.44
48390;BME280;34643;47.964;7.982;2022-10-23T06:30:38;96518.19;;;18.31;65.28
48390;BME280;34643;47.964;7.982;2022-10-23T06:35:38;96512.72;;;18.34;65.42
48390;BME280;34643;47.964;7.982;2022-10-23T06:40:39;96520.69;;;18.33;65.55
48390;BME280;34643;47.964;7.982;2022-10-23T06:45:40;96508.59;;;18.32;65.36
48390;BME280;34643;47.964;7.982;2022-10-23T06:50:47;96519.03;;;18.32;65.39
48390;BME280;34643;47.964;7.982;2022-10-23T06:55:57;96518.06;;;18.33;65.44
48390;BME280;34643;47.964;7.982;2022-10-23T07:01:01;96520.69;;;18.33;65.63
48390;BME280;34643;47.964;7.982;2022-10-23T07:06:03;96519.75;;;18.34;65.43
48390;BME280;34643;47.964;7.982;2022-10-23T07:11:06;96517.69;;;18.37;65.54
48390;BME280;34643;47.964;7.982;2022-10-23T07:16:09;96515.78;;;18.39;65.45
48390;BME280;34643;47.964;7.982;2022-10-23T07:21:10;96514.69;;;18.42;65.32
48390;BME280;34643;47.964;7.982;2022-10-23T07:26:13;96514.84;;;18.40;65.23
48390;BME280;34643;47.964;7.982;2022-10-23T07:31:14;96513.88;;;18.41;65.42
48390;BME280;34643;47.964;7.982;2022-10-23T07:36:50;96505.66;;;18.46;65.29
48390;BME280;34643;47.964;7.982;2022-10-23T07:41:51;96513.59;;;18.23;60.24
48390;BME280;34643;47.964;7.982;2022-10-23T07:46:52;96504.38;;;18.19;61.64
48390;BME280;34643;47.964;7.982;2022-10-23T07:51:56;96514.88;;;18.29;61.89
48390;BME280;34643;47.964;7.982;2022-10-23T07:57:01;96509.41;;;18.32;59.85
48390;BME280;34643;47.964;7.982;2022-10-23T08:02:28;96505.81;;;18.33;60.35
48390;BME280;34643;47.964;7.982;2022-10-23T08:07:28;96511.31;;;18.30;60.54
48390;BME280;34643;47.964;7.982;2022-10-23T08:12:30;96508.72;;;18.30;57.03
48390;BME280;34643;47.964;7.982;2022-10-23T08:17:31;96504.09;;;18.22;56.23
48390;BME280;34643;47.964;7.982;2022-10-23T08:22:39;96499.19;;;18.29;56.56
48390;BME280;34643;47.964;7.982;2022-10-23T08:27:39;96499.16;;;18.40;57.22
48390;BME280;34643;47.964;7.982;2022-10-23T08:32:40;96484.63;;;18.48;57.37
48390;BME280;34643;47.964;7.982;2022-10-23T08:37:40;96485.06;;;18.53;57.27
48390;BME280;34643;47.964;7.982;2022-10-23T08:42:43;96470.13;;;18.65;57.37
48390;BME280;34643;47.964;7.982;2022-10-23T08:47:46;96472.88;;;18.63;58.32
48390;BME280;34643;47.964;7.982;2022-10-23T08:53:43;96466.13;;;18.60;58.91
48390;BME280;34643;47.964;7.982;2022-10-23T08:58:51;96472.31;;;18.59;59.43
48390;BME280;34643;47.964;7.982;2022-10-23T09:03:53;96466.13;;;18.60;59.95
48390;BME280;34643;47.964;7.982;2022-10-23T09:09:56;96460.91;;;18.60;60.37
48390;BME280;34643;47.964;7.982;2022-10-23T09:14:30;96453.06;;;18.60;60.45
48390;BME280;34643;47.964;7.982;2022-10-23T09:19:33;96456.50;;;18.61;60.81
48390;BME280;34643;47.964;7.982;2022-10-23T09:24:34;96446.03;;;18.61;61.00
48390;BME280;34643;47.964;7.982;2022-10-23T09:29:35;96442.47;;;18.62;60.97
48390;BME280;34643;47.964;7.982;2022-10-23T09:34:35;96437.25;;;18.62;61.15
48390;BME280;34643;47.964;7.982;2022-10-23T09:39:36;96431.19;;;18.61;61.45
48390;BME280;34643;47.964;7.982;2022-10-23T09:44:36;96424.06;;;18.64;61.41
48390;BME280;34643;47.964;7.982;2022-10-23T09:49:47;96422.25;;;18.64;61.59
48390;BME280;34643;47.964;7.982;2022-10-23T09:59:53;96416.91;;;18.66;61.67
48390;BME280;34643;47.964;7.982;2022-10-23T10:04:55;96421.28;;;18.65;61.90
48390;BME280;34643;47.964;7.982;2022-10-23T10:09:56;96421.28;;;18.65;61.96
48390;BME280;34643;47.964;7.982;2022-10-23T10:15:07;96426.50;;;18.65;62.02
48390;BME280;34643;47.964;7.982;2022-10-23T10:20:18;96422.94;;;18.66;62.00
48390;BME280;34643;47.964;7.982;2022-10-23T10:25:24;96429.84;;;18.67;62.18
48390;BME280;34643;47.964;7.982;2022-10-23T10:30:29;96420.34;;;18.66;62.15
48390;BME280;34643;47.964;7.982;2022-10-23T10:46:32;96419.22;;;18.69;62.42
48390;BME280;34643;47.964;7.982;2022-10-23T10:56:41;96413.06;;;18.70;62.44
48390;BME280;34643;47.964;7.982;2022-10-23T11:01:49;96408.66;;;18.70;62.52
48390;BME280;34643;47.964;7.982;2022-10-23T11:06:51;96401.50;;;18.72;62.45
48390;BME280;34643;47.964;7.982;2022-10-23T11:11:53;96401.50;;;18.72;62.49
48390;BME280;34643;47.964;7.982;2022-10-23T11:16:56;96391.03;;;18.72;62.46
48390;BME280;34643;47.964;7.982;2022-10-23T11:37:59;96355.97;;;18.75;62.76
48390;BME280;34643;47.964;7.982;2022-10-23T11:43:03;96350.75;;;18.75;62.59
48390;BME280;34643;47.964;7.982;2022-10-23T11:53:05;96320.19;;;18.75;62.86
48390;BME280;34643;47.964;7.982;2022-10-23T11:58:12;96326.13;;;18.77;62.78
48390;BME280;34643;47.964;7.982;2022-10-23T12:03:19;96323.38;;;18.79;62.92
48390;BME280;34643;47.964;7.982;2022-10-23T12:08:22;96322.56;;;18.78;63.01
48390;BME280;34643;47.964;7.982;2022-10-23T12:18:28;96299.16;;;18.77;63.21
48390;BME280;34643;47.964;7.982;2022-10-23T12:23:38;96306.03;;;18.78;62.92
48390;BME280;34643;47.964;7.982;2022-10-23T12:34:35;96286.91;;;18.77;63.22
48390;BME280;34643;47.964;7.982;2022-10-23T12:39:39;96291.19;;;18.78;63.24
48390;BME280;34643;47.964;7.982;2022-10-23T12:44:40;96272.06;;;18.78;62.79
48390;BME280;34643;47.964;7.982;2022-10-23T12:49:46;96264.22;;;18.78;63.36
48390;BME280;34643;47.964;7.982;2022-10-23T12:54:46;96270.38;;;18.77;63.25
48390;BME280;34643;47.964;7.982;2022-10-23T12:59:50;96274.66;;;18.78;63.18
48390;BME280;34643;47.964;7.982;2022-10-23T13:04:52;96270.25;;;18.78;63.31
48390;BME280;34643;47.964;7.982;2022-10-23T13:09:53;96267.66;;;18.78;63.27
48390;BME280;34643;47.964;7.982;2022-10-23T13:20:10;96243.13;;;18.79;63.23
48390;BME280;34643;47.964;7.982;2022-10-23T13:25:28;96248.38;;;18.79;63.25
48390;BME280;34643;47.964;7.982;2022-10-23T13:30:30;96247.41;;;18.80;63.21
48390;BME280;34643;47.964;7.982;2022-10-23T13:35:31;96244.81;;;18.80;63.38
48390;BME280;34643;47.964;7.982;2022-10-23T13:40:31;96237.91;;;18.79;63.39
48390;BME280;34643;47.964;7.982;2022-10-23T13:45:34;96230.06;;;18.79;63.41
48390;BME280;34643;47.964;7.982;2022-10-23T13:50:34;96235.28;;;18.79;63.29
48390;BME280;34643;47.964;7.982;2022-10-23T13:55:34;96231.72;;;18.80;63.50
48390;BME280;34643;47.964;7.982;2022-10-23T14:00:38;96221.41;;;18.79;63.39
48390;BME280;34643;47.964;7.982;2022-10-23T14:05:38;96222.22;;;18.79;63.45
48390;BME280;34643;47.964;7.982;2022-10-23T14:10:39;96236.13;;;18.80;63.20
48390;BME280;34643;47.964;7.982;2022-10-23T14:15:39;96243.88;;;18.82;63.34
48390;BME280;34643;47.964;7.982;2022-10-23T14:20:39;96238.66;;;18.82;63.32
48390;BME280;34643;47.964;7.982;2022-10-23T14:25:40;96236.97;;;18.80;63.52
48390;BME280;34643;47.964;7.982;2022-10-23T14:30:40;96229.94;;;18.81;63.47
48390;BME280;34643;47.964;7.982;2022-10-23T14:35:40;96226.50;;;18.80;63.60
48390;BME280;34643;47.964;7.982;2022-10-23T14:40:42;96217.00;;;18.79;63.51
48390;BME280;34643;47.964;7.982;2022-10-23T14:45:42;96222.09;;;18.81;63.42
48390;BME280;34643;47.964;7.982;2022-10-23T14:50:44;96220.44;;;18.80;63.53
48390;BME280;34643;47.964;7.982;2022-10-23T14:55:44;96221.28;;;18.80;63.56
48390;BME280;34643;47.964;7.982;2022-10-23T15:00:45;96221.28;;;18.80;63.41
48390;BME280;34643;47.964;7.982;2022-10-23T15:05:45;96231.72;;;18.80;63.44
48390;BME280;34643;47.964;7.982;2022-10-23T15:10:45;96241.38;;;18.80;63.64
48390;BME280;34643;47.964;7.982;2022-10-23T15:15:45;96230.91;;;18.80;63.43
48390;BME280;34643;47.964;7.982;2022-10-23T15:20:52;96223.88;;;18.80;63.38
48390;BME280;34643;47.964;7.982;2022-10-23T15:25:56;96203.91;;;18.79;63.44
48390;BME280;34643;47.964;7.982;2022-10-23T15:30:57;96200.34;;;18.80;63.63
48390;BME280;34643;47.964;7.982;2022-10-23T15:35:57;96194.31;;;18.80;63.46
48390;BME280;34643;47.964;7.982;2022-10-23T15:40:59;96185.63;;;18.79;63.57
48390;BME280;34643;47.964;7.982;2022-10-23T15:46:11;96191.69;;;18.80;63.39
48390;BME280;34643;47.964;7.982;2022-10-23T15:51:11;96200.34;;;18.80;63.59
48390;BME280;34643;47.964;7.982;2022-10-23T15:56:12;96172.53;;;18.79;63.44
48390;BME280;34643;47.964;7.982;2022-10-23T16:01:12;96161.28;;;18.79;63.57
48390;BME280;34643;47.964;7.982;2022-10-23T16:06:13;96162.09;;;18.79;63.58
48390;BME280;34643;47.964;7.982;2022-10-23T16:11:19;96157.84;;;18.78;63.52
48390;BME280;34643;47.964;7.982;2022-10-23T16:16:19;96162.09;;;18.79;63.48
48390;BME280;34643;47.964;7.982;2022-10-23T16:21:21;96159.47;;;18.79;63.48
48390;BME280;34643;47.964;7.982;2022-10-23T16:26:22;96162.09;;;18.79;63.44
48390;BME280;34643;47.964;7.982;2022-10-23T16:31:22;96173.41;;;18.80;63.48
48390;BME280;34643;47.964;7.982;2022-10-23T16:36:23;96182.06;;;18.80;63.59
48390;BME280;34643;47.964;7.982;2022-10-23T16:41:41;96185.25;;;18.84;63.26
48390;BME280;34643;47.964;7.982;2022-10-23T16:46:50;96206.16;;;18.84;63.33
48390;BME280;34643;47.964;7.982;2022-10-23T16:51:50;96214.13;;;18.83;63.34
48390;BME280;34643;47.964;7.982;2022-10-23T16:56:51;96214.13;;;18.83;63.39
48390;BME280;34643;47.964;7.982;2022-10-23T17:01:51;96219.38;;;18.83;63.39
48390;BME280;34643;47.964;7.982;2022-10-23T17:06:52;96239.34;;;18.84;63.34
48390;BME280;34643;47.964;7.982;2022-10-23T17:11:52;96246.91;;;18.87;63.38
48390;BME280;34643;47.964;7.982;2022-10-23T17:16:54;96260.53;;;19.00;64.22
48390;BME280;34643;47.964;7.982;2022-10-23T17:21:54;96283.81;;;19.03;64.31
48390;BME280;34643;47.964;7.982;2022-10-23T17:26:55;96297.84;;;19.02;64.37
48390;BME280;34643;47.964;7.982;2022-10-23T17:31:55;96315.63;;;19.08;64.60
48390;BME280;34643;47.964;7.982;2022-10-23T17:36:56;96331.88;;;19.12;65.03
48390;BME280;34643;47.964;7.982;2022-10-23T17:41:56;96332.56;;;19.14;65.19
48390;BME280;34643;47.964;7.982;2022-10-23T17:46:57;96335.44;;;19.11;65.01
48390;BME280;34643;47.964;7.982;2022-10-23T17:51:58;96315.63;;;19.08;65.43
48390;BME280;34643;47.964;7.982;2022-10-23T17:56:58;96342.59;;;19.09;65.57
48390;BME280;34643;47.964;7.982;2022-10-23T18:01:59;96384.31;;;19.10;65.74
48390;BME280;34643;47.964;7.982;2022-10-23T18:06:59;96388.88;;;19.08;65.62
48390;BME280;34643;47.964;7.982;2022-10-23T18:11:59;96367.94;;;19.08;65.62
48390;BME280;34643;47.964;7.982;2022-10-23T18:17:00;96364.34;;;19.09;65.54
48390;BME280;34643;47.964;7.982;2022-10-23T18:22:01;96389.56;;;19.10;65.67
48390;BME280;34643;47.964;7.982;2022-10-23T18:27:01;96403.59;;;19.09;65.49
48390;BME280;34643;47.964;7.982;2022-10-23T18:32:01;96436.63;;;19.10;65.69
48390;BME280;34643;47.964;7.982;2022-10-23T18:37:01;96380.03;;;19.09;65.47
48390;BME280;34643;47.964;7.982;2022-10-23T18:42:02;96372.19;;;19.09;65.65
48390;BME280;34643;47.964;7.982;2022-10-23T18:47:02;96372.06;;;19.11;65.69
48390;BME280;34643;47.964;7.982;2022-10-23T18:52:02;96363.41;;;19.10;65.41
48390;BME280;34643;47.964;7.982;2022-10-23T18:57:03;96374.69;;;19.11;65.30
48390;BME280;34643;47.964;7.982;2022-10-23T19:02:03;96380.72;;;19.11;65.45
48390;BME280;34643;47.964;7.982;2022-10-23T19:07:04;96379.78;;;19.12;65.46
48390;BME280;34643;47.964;7.982;2022-10-23T19:12:04;96361.47;;;19.12;65.47
48390;BME280;34643;47.964;7.982;2022-10-23T19:17:07;96361.47;;;19.12;65.72
48390;BME280;34643;47.964;7.982;2022-10-23T19:22:08;96367.53;;;19.13;65.56
48390;BME280;34643;47.964;7.982;2022-10-23T19:27:10;96367.53;;;19.13;65.73
48390;BME280;34643;47.964;7.982;2022-10-23T19:32:10;96370.97;;;19.13;65.56
48390;BME280;34643;47.964;7.982;2022-10-23T19:37:11;96365.75;;;19.13;65.80
48390;BME280;34643;47.964;7.982;2022-10-23T19:42:12;96383.09;;;19.14;65.58
48390;BME280;34643;47.964;7.982;2022-10-23T19:47:12;96383.91;;;19.15;65.67
48390;BME280;34643;47.964;7.982;2022-10-23T19:52:12;96380.47;;;19.14;65.65
48390;BME280;34643;47.964;7.982;2022-10-23T19:57:13;96384.75;;;19.15;65.58
48390;BME280;34643;47.964;7.982;2022-10-23T20:02:13;96396.03;;;19.16;65.77
48390;BME280;34643;47.964;7.982;2022-10-23T20:07:13;96392.47;;;19.17;65.76
48390;BME280;34643;47.964;7.982;2022-10-23T20:12:13;96399.47;;;19.16;65.81
48390;BME280;34643;47.964;7.982;2022-10-23T20:17:14;96417.13;;;19.24;66.14
48390;BME280;34643;47.964;7.982;2022-10-23T20:22:15;96427.84;;;19.21;65.90
48390;BME280;34643;47.964;7.982;2022-10-23T20:27:15;96417.53;;;19.19;65.70
48390;BME280;34643;47.964;7.982;2022-10-23T20:32:17;96425.09;;;19.23;66.05
48390;BME280;34643;47.964;7.982;2022-10-23T20:37:17;96414.78;;;19.21;65.97
48390;BME280;34643;47.964;7.982;2022-10-23T20:42:18;96430.47;;;19.21;65.65
48390;BME280;34643;47.964;7.982;2022-10-23T20:47:18;96440.13;;;19.21;65.72
48390;BME280;34643;47.964;7.982;2022-10-23T20:52:18;96453.19;;;19.21;65.71
48390;BME280;34643;47.964;7.982;2022-10-23T20:57:20;96466.28;;;19.21;65.72
48390;BME280;34643;47.964;7.982;2022-10-23T21:02:21;96463.66;;;19.21;65.88
48390;BME280;34643;47.964;7.982;2022-10-23T21:07:21;96451.53;;;19.19;65.71
48390;BME280;34643;47.964;7.982;2022-10-23T21:12:21;96437.34;;;19.22;66.07
48390;BME280;34643;47.964;7.982;2022-10-23T21:17:22;96431.16;;;19.23;66.00
48390;BME280;34643;47.964;7.982;2022-10-23T21:22:22;96410.50;;;19.20;65.79
48390;BME280;34643;47.964;7.982;2022-10-23T21:27:22;96414.91;;;19.19;65.84
48390;BME280;34643;47.964;7.982;2022-10-23T21:32:23;96413.25;;;19.18;66.07
48390;BME280;34643;47.964;7.982;2022-10-23T21:37:23;96397.53;;;19.18;65.94
48390;BME280;34643;47.964;7.982;2022-10-23T21:42:24;96402.78;;;19.18;66.04
48390;BME280;34643;47.964;7.982;2022-10-23T21:47:24;96420.25;;;19.18;66.05
48390;BME280;34643;47.964;7.982;2022-10-23T21:52:25;96413.25;;;19.18;66.01
48390;BME280;34643;47.964;7.982;2022-10-23T21:57:28;96421.09;;;19.18;65.91
48390;BME280;34643;47.964;7.982;2022-10-23T22:02:28;96428.13;;;19.18;66.19
48390;BME280;34643;47.964;7.982;2022-10-23T22:07:29;96424.69;;;19.17;66.24
48390;BME280;34643;47.964;7.982;2022-10-23T22:12:29;96423.84;;;19.17;65.98
48390;BME280;34643;47.964;7.982;2022-10-23T22:17:30;96430.84;;;19.16;66.24
48390;BME280;34643;47.964;7.982;2022-10-23T22:22:30;96430.03;;;19.16;66.44
48390;BME280;34643;47.964;7.982;2022-10-23T22:27:31;96405.69;;;19.15;65.94
48390;BME280;34643;47.964;7.982;2022-10-23T22:32:31;96406.50;;;19.16;66.23
48390;BME280;34643;47.964;7.982;2022-10-23T22:37:31;96399.59;;;19.15;66.41
48390;BME280;34643;47.964;7.982;2022-10-23T22:42:31;96389.97;;;19.15;66.11
48390;BME280;34643;47.964;7.982;2022-10-23T22:47:32;96385.69;;;19.14;66.48
48390;BME280;34643;47.964;7.982;2022-10-23T22:52:32;96393.41;;;19.16;66.45
48390;BME280;34643;47.964;7.982;2022-10-23T22:57:32;96387.38;;;19.15;66.53
48390;BME280;34643;47.964;7.982;2022-10-23T23:02:33;96389.97;;;19.15;66.69
48390;BME280;34643;47.964;7.982;2022-10-23T23:07:33;96402.22;;;19.15;66.64
48390;BME280;34643;47.964;7.982;2022-10-23T23:12:33;96405.69;;;19.15;66.42
48390;BME280;34643;47.964;7.982;2022-10-23T23:17:36;96409.13;;;19.16;66.44
48390;BME280;34643;47.964;7.982;2022-10-23T23:22:36;96405.69;;;19.15;66.81
48390;BME280;34643;47.964;7.982;2022-10-23T23:27:36;96392.72;;;19.14;66.37
48390;BME280;34643;47.964;7.982;2022-10-23T23:32:39;96391.75;;;19.15;66.29
48390;BME280;34643;47.964;7.982;2022-10-23T23:37:39;96408.28;;;19.15;67.11
48390;BME280;34643;47.964;7.982;2022-10-23T23:42:40;96411.84;;;19.14;66.65
48390;BME280;34643;47.964;7.982;2022-10-23T23:47:40;96416.16;;;19.15;67.37
48390;BME280;34643;47.964;7.982;2022-10-23T23:52:40;96411.84;;;19.14;66.98
48390;BME280;34643;47.964;7.982;2022-10-23T23:57:41;96414.47;;;19.14;67.35
